Time;durP1;ratioP1;P1;durP2;ratioP2;P2;SDS_P1;SDS_P2;PMS_P1;PMS_P2;Temp;Humidity;BMP_temperature;BMP_pressure;BME280_temperature;BME280_humidity;BME280_pressure;Samples;Min_cycle;Max_cycle;Signal;HPM_P1;HPM_P2
2023/04/05 00:00:24;;;;;;;15.63;9.07;;;-1.00;99.90;;;;;;6127101;23;20022;-92
2023/04/05 00:03:13;;;;;;;16.90;8.30;;;-1.00;99.90;;;;;;6128739;23;20033;-91
2023/04/05 00:06:06;;;;;;;12.70;7.80;;;-1.10;99.90;;;;;;6128454;23;20040;-91
2023/04/05 00:09:03;;;;;;;13.85;8.10;;;-1.00;99.90;;;;;;6111859;23;20032;-90
2023/04/05 00:12:04;;;;;;;13.32;8.07;;;-1.10;99.90;;;;;;6135037;23;20033;-90
2023/04/05 00:14:52;;;;;;;13.75;8.50;;;-1.10;99.90;;;;;;6136880;23;20037;-90
2023/04/05 00:17:42;;;;;;;13.23;8.77;;;-1.20;99.90;;;;;;6128630;23;20397;-90
2023/04/05 00:20:30;;;;;;;14.60;8.70;;;-1.20;99.90;;;;;;6128357;23;20025;-92
2023/04/05 00:23:19;;;;;;;20.45;11.30;;;-1.20;99.90;;;;;;6129463;23;20040;-91
2023/04/05 00:26:11;;;;;;;20.75;11.48;;;-1.20;99.90;;;;;;6131017;23;20022;-91
2023/04/05 00:29:01;;;;;;;14.77;9.95;;;-1.20;99.90;;;;;;6127072;23;20113;-90
2023/04/05 00:31:49;;;;;;;18.17;9.27;;;-1.30;99.90;;;;;;6123958;23;20030;-91
2023/04/05 00:34:37;;;;;;;16.02;9.82;;;-1.30;99.90;;;;;;6128190;23;20413;-93
2023/04/05 00:37:29;;;;;;;19.58;9.63;;;-1.30;99.90;;;;;;6126811;23;20026;-92
2023/04/05 00:40:17;;;;;;;12.38;8.80;;;-1.40;99.90;;;;;;6125822;23;20402;-90
2023/04/05 00:43:05;;;;;;;15.63;9.20;;;-1.40;99.90;;;;;;6131469;23;20021;-92
2023/04/05 00:45:53;;;;;;;15.50;8.88;;;-1.40;99.90;;;;;;6139773;23;20029;-91
2023/04/05 00:48:43;;;;;;;14.77;9.02;;;-1.40;99.90;;;;;;6139178;23;20093;-91
2023/04/05 00:51:32;;;;;;;16.23;8.95;;;-1.40;99.90;;;;;;6126408;23;20082;-89
2023/04/05 00:54:24;;;;;;;14.88;9.23;;;-1.40;99.90;;;;;;6127790;23;20026;-91
2023/04/05 00:57:15;;;;;;;16.08;9.75;;;-1.40;99.90;;;;;;6125728;23;20484;-91
2023/04/05 01:00:10;;;;;;;14.48;9.55;;;-1.30;99.90;;;;;;6128490;23;20042;-92
2023/04/05 01:03:24;;;;;;;17.27;10.25;;;-1.30;99.90;;;;;;6133610;23;20044;-90
2023/04/05 01:06:26;;;;;;;15.50;9.82;;;-1.20;99.90;;;;;;6136597;23;20049;-93
2023/04/05 01:09:25;;;;;;;14.52;9.85;;;-1.30;99.90;;;;;;6137935;23;20030;-92
2023/04/05 01:12:21;;;;;;;15.40;9.30;;;-1.30;99.90;;;;;;6141028;23;20025;-91
2023/04/05 01:15:13;;;;;;;13.52;8.55;;;-1.30;99.90;;;;;;6140100;23;20030;-92
2023/04/05 01:18:03;;;;;;;14.10;8.73;;;-1.30;99.90;;;;;;6137785;23;20037;-93
2023/04/05 01:21:28;;;;;;;16.38;9.07;;;-1.20;99.90;;;;;;6117539;23;20018;-91
2023/04/05 01:24:56;;;;;;;15.50;9.85;;;-1.20;99.90;;;;;;6136879;23;20041;-92
2023/04/05 01:28:14;;;;;;;14.48;9.27;;;-1.30;99.90;;;;;;6135512;23;20032;-89
2023/04/05 01:31:26;;;;;;;17.23;8.93;;;-1.30;99.90;;;;;;6132801;23;20359;-90
2023/04/05 01:34:40;;;;;;;13.38;8.90;;;-1.40;99.90;;;;;;6128618;23;20030;-93
2023/04/05 01:37:33;;;;;;;14.68;9.13;;;-1.50;99.90;;;;;;6129663;23;20053;-92
2023/04/05 01:40:23;;;;;;;14.38;9.05;;;-1.50;99.90;;;;;;6130794;23;20040;-92
2023/04/05 01:43:16;;;;;;;12.18;8.73;;;-1.50;99.90;;;;;;6133082;23;20126;-91
2023/04/05 01:46:04;;;;;;;15.55;8.70;;;-1.60;99.90;;;;;;6138817;23;20032;-91
2023/04/05 01:48:51;;;;;;;11.50;8.77;;;-1.60;99.90;;;;;;6143259;23;20082;-90
2023/04/05 01:51:40;;;;;;;14.70;8.13;;;-1.60;99.90;;;;;;6139409;23;20053;-91
2023/04/05 01:54:32;;;;;;;;;;;-1.70;99.90;;;;;;6144573;23;20012;-89
2023/04/05 01:57:23;;;;;;;13.77;9.05;;;-1.70;99.90;;;;;;6140449;23;20308;-92
2023/04/05 02:00:19;;;;;;;15.80;8.75;;;-1.70;99.90;;;;;;6133279;23;20082;-92
2023/04/05 02:03:08;;;;;;;15.88;10.18;;;-1.70;99.90;;;;;;6127262;23;20026;-92
2023/04/05 02:05:59;;;;;;;15.57;9.48;;;-1.60;99.90;;;;;;6129884;23;20113;-92
2023/04/05 02:08:48;;;;;;;18.27;9.25;;;-1.70;99.90;;;;;;6130781;23;20030;-91
2023/04/05 02:11:38;;;;;;;12.85;8.90;;;-1.70;99.90;;;;;;6134762;23;20060;-92
2023/04/05 02:14:26;;;;;;;14.68;9.00;;;-1.80;99.90;;;;;;6142058;23;20037;-88
2023/04/05 02:17:16;;;;;;;14.32;8.55;;;-1.90;99.90;;;;;;6143227;23;20025;-90
2023/04/05 02:20:11;;;;;;;13.95;9.40;;;-1.90;99.90;;;;;;6136295;23;20026;-91
2023/04/05 02:23:02;;;;;;;12.50;8.70;;;-1.90;99.90;;;;;;6132415;23;20604;-90
2023/04/05 02:25:53;;;;;;;15.02;9.50;;;-1.80;99.90;;;;;;6128042;23;20094;-92
2023/04/05 02:28:41;;;;;;;15.25;9.07;;;-1.90;99.90;;;;;;6128736;23;20022;-92
2023/04/05 02:31:38;;;;;;;13.52;9.18;;;-1.90;99.90;;;;;;6127834;23;20437;-91
2023/04/05 02:34:30;;;;;;;14.05;9.45;;;-2.00;99.90;;;;;;6129016;23;20037;-93
2023/04/05 02:37:22;;;;;;;13.48;8.68;;;-2.00;99.90;;;;;;6128155;23;20366;-91
2023/04/05 02:40:55;;;;;;;;;;;;;;;;;;;;;
2023/04/05 02:43:58;;;;;;;16.08;9.48;;;-2.10;99.90;;;;;;6130820;23;20033;-92
2023/04/05 02:46:58;;;;;;;15.70;9.60;;;-2.20;99.90;;;;;;6127810;23;20033;-92
2023/04/05 02:49:48;;;;;;;16.63;9.10;;;-2.20;99.90;;;;;;6126755;23;20021;-92
2023/04/05 02:52:45;;;;;;;16.95;9.35;;;-2.30;99.90;;;;;;6129372;23;20048;-91
2023/04/05 02:55:53;;;;;;;16.90;9.38;;;-2.30;99.90;;;;;;6103451;23;20038;-89
2023/04/05 02:59:13;;;;;;;16.13;9.50;;;-2.30;99.90;;;;;;6111879;23;20026;-89
2023/04/05 03:02:15;;;;;;;17.85;9.35;;;-2.40;99.90;;;;;;6108828;23;20087;-90
2023/04/05 03:05:42;;;;;;;16.52;9.57;;;-2.30;99.90;;;;;;6103326;23;20041;-91
2023/04/05 03:08:53;;;;;;;16.67;9.85;;;-2.30;99.90;;;;;;6104593;23;20078;-92
2023/04/05 03:11:52;;;;;;;16.90;10.13;;;-2.40;99.90;;;;;;6102155;23;20064;-91
2023/04/05 03:15:05;;;;;;;18.15;10.13;;;-2.50;99.90;;;;;;6063543;23;20106;-92
2023/04/05 03:18:24;;;;;;;18.60;10.00;;;-2.50;99.90;;;;;;6098557;23;20044;-92
2023/04/05 03:21:37;;;;;;;25.15;11.15;;;-2.60;99.90;;;;;;6105546;23;20033;-90
2023/04/05 03:24:41;;;;;;;;;;;;;;;;;;;;;
2023/04/05 03:27:37;;;;;;;18.38;11.25;;;-2.50;99.90;;;;;;6105698;23;20118;-92
2023/04/05 03:30:25;;;;;;;16.33;10.63;;;-2.40;99.90;;;;;;6098379;23;20027;-92
2023/04/05 03:33:18;;;;;;;19.23;11.90;;;-2.40;1.00;;;;;;6100763;23;20026;-91
2023/04/05 03:36:20;;;;;;;18.77;11.93;;;-2.50;1.00;;;;;;6107101;23;20030;-92
2023/04/05 03:39:12;;;;;;;18.77;11.48;;;-2.50;1.00;;;;;;6107780;23;20050;-91
2023/04/05 03:42:03;;;;;;;24.33;12.73;;;-2.50;1.00;;;;;;6117823;23;20057;-91
2023/04/05 03:44:53;;;;;;;23.52;11.70;;;-2.60;1.00;;;;;;6116435;23;20053;-90
2023/04/05 03:47:41;;;;;;;17.92;11.57;;;-2.60;1.00;;;;;;6115938;23;20014;-87
2023/04/05 03:50:32;;;;;;;18.42;11.38;;;-2.60;1.00;;;;;;6116839;23;20014;-87
2023/04/05 03:53:19;;;;;;;20.17;13.10;;;-2.70;1.00;;;;;;6113792;23;20057;-89
2023/04/05 03:56:08;;;;;;;19.67;11.38;;;-2.70;1.00;;;;;;6111802;23;20027;-88
2023/04/05 03:58:57;;;;;;;23.33;11.95;;;-2.70;1.00;;;;;;6111821;23;20026;-89
2023/04/05 04:01:54;;;;;;;26.73;13.60;;;-2.80;1.00;;;;;;6112340;23;20071;-92
2023/04/05 04:05:07;;;;;;;19.20;11.10;;;-2.90;1.00;;;;;;6103948;23;20041;-91
2023/04/05 04:07:58;;;;;;;20.10;11.60;;;-3.00;1.00;;;;;;6097904;23;20023;-92
2023/04/05 04:10:49;;;;;;;21.20;12.05;;;-3.10;1.00;;;;;;6097580;23;20023;-91
2023/04/05 04:13:41;;;;;;;20.63;12.35;;;-3.20;1.00;;;;;;6095381;23;20064;-89
2023/04/05 04:16:31;;;;;;;17.05;11.88;;;-3.20;1.00;;;;;;6094447;23;20034;-92
2023/04/05 04:19:19;;;;;;;18.38;12.15;;;-3.30;1.00;;;;;;6096662;23;20030;-90
2023/04/05 04:22:08;;;;;;;25.05;12.98;;;-3.40;11.50;;;;;;6094997;23;20050;-91
2023/04/05 04:24:56;;;;;;;23.13;12.88;;;-3.30;90.70;;;;;;6096945;23;20054;-91
2023/04/05 04:27:45;;;;;;;21.60;11.82;;;-3.40;99.90;;;;;;6094673;23;20042;-91
2023/04/05 04:30:33;;;;;;;22.20;12.65;;;-3.40;99.90;;;;;;6098248;23;20033;-91
2023/04/05 04:33:20;;;;;;;25.15;12.60;;;-3.50;99.90;;;;;;6100610;23;20406;-86
2023/04/05 04:36:12;;;;;;;22.55;12.25;;;-3.50;99.90;;;;;;6099320;23;20035;-84
2023/04/05 04:39:04;;;;;;;23.50;12.45;;;-3.60;99.90;;;;;;6103911;23;20026;-84
2023/04/05 04:41:53;;;;;;;25.58;15.52;;;-3.70;99.90;;;;;;6075059;23;20022;-86
2023/04/05 04:44:41;;;;;;;30.08;15.70;;;-3.60;99.90;;;;;;6091529;23;20034;-86
2023/04/05 04:47:29;;;;;;;24.40;15.25;;;-3.60;1.00;;;;;;6097497;23;20039;-87
2023/04/05 04:50:18;;;;;;;26.52;15.38;;;-3.60;1.00;;;;;;6092899;23;20027;-85
2023/04/05 04:53:06;;;;;;;27.48;15.15;;;-3.60;1.00;;;;;;6098214;23;20034;-86
2023/04/05 04:55:55;;;;;;;26.15;15.00;;;-3.70;1.00;;;;;;6099352;23;20033;-88
2023/04/05 04:58:43;;;;;;;26.42;14.70;;;-3.70;38.80;;;;;;6098686;23;20031;-88
2023/04/05 05:01:33;;;;;;;22.70;14.70;;;-3.70;99.90;;;;;;6096486;23;20037;-89
2023/04/05 05:04:45;;;;;;;24.95;15.45;;;-3.70;99.90;;;;;;6098200;23;20080;-89
2023/04/05 05:07:41;;;;;;;27.48;14.02;;;-3.80;99.90;;;;;;6093211;23;20030;-89
2023/04/05 05:10:37;;;;;;;25.48;14.98;;;-3.80;99.90;;;;;;6095809;23;20033;-88
2023/04/05 05:13:25;;;;;;;24.42;15.25;;;-3.80;99.90;;;;;;6097127;23;20031;-88
2023/04/05 05:16:12;;;;;;;26.58;15.15;;;-3.80;1.00;;;;;;6093233;23;20090;-89
2023/04/05 05:19:02;;;;;;;24.15;15.40;;;-3.80;1.00;;;;;;6095379;23;20125;-89
2023/04/05 05:21:52;;;;;;;26.35;14.88;;;-3.70;94.90;;;;;;6075498;23;20067;-89
2023/04/05 05:24:40;;;;;;;31.88;16.08;;;-3.70;99.90;;;;;;6098193;23;20033;-90
2023/04/05 05:27:30;;;;;;;26.10;16.15;;;-3.70;99.90;;;;;;6095053;23;20097;-90
2023/04/05 05:30:19;;;;;;;23.90;15.02;;;-3.70;99.90;;;;;;6094829;23;20034;-89
2023/04/05 05:33:09;;;;;;;23.20;15.43;;;-3.60;99.90;;;;;;6098456;23;20132;-88
2023/04/05 05:35:57;;;;;;;27.88;16.70;;;-3.50;99.90;;;;;;6095515;23;20063;-88
2023/04/05 05:38:45;;;;;;;37.88;20.65;;;-3.40;99.90;;;;;;6095498;23;20041;-90
2023/04/05 05:41:37;;;;;;;42.10;19.45;;;-3.10;1.00;;;;;;6095828;23;20026;-90
2023/04/05 05:44:30;;;;;;;43.78;20.70;;;-3.00;99.90;;;;;;6105086;23;20022;-90
2023/04/05 05:47:59;;;;;;;;;;;;;;;;;;;;;
2023/04/05 05:51:12;;;;;;;34.38;19.10;;;-2.60;99.90;;;;;;5978217;24;20098;-91
2023/04/05 05:54:37;;;;;;;32.40;18.38;;;-2.50;99.90;;;;;;5981759;23;20024;-92
2023/04/05 06:05:45;;;;;;;25.27;15.80;;;-2.10;1.00;;;;;;5859176;23;20143;-90
2023/04/05 06:22:16;;;;;;;;;;;;;;;;;;;;;
2023/04/05 07:11:06;;;;;;;;;;;;;;;;;;;;;
2023/04/05 07:23:10;;;;;;;;;;;;;;;;;;;;;
2023/04/05 07:27:16;;;;;;;13.98;8.52;;;3.00;99.90;;;;;;6083491;23;20030;-93
2023/04/05 07:56:38;;;;;;;10.65;7.63;;;5.30;71.60;;;;;;6036994;23;20014;-87
2023/04/05 08:03:38;;;;;;;8.82;6.38;;;6.00;42.40;;;;;;6096504;23;20058;-88
2023/04/05 08:14:51;;;;;;;8.20;6.05;;;8.00;15.40;;;;;;6058349;23;20067;-92
2023/04/05 08:17:39;;;;;;;12.00;6.32;;;8.30;2.50;;;;;;6076282;23;20045;-91
2023/04/05 08:20:30;;;;;;;8.00;6.35;;;9.00;1.00;;;;;;6075333;23;20037;-91
2023/04/05 08:31:28;;;;;;;11.13;6.95;;;9.50;1.00;;;;;;6103605;23;20358;-91
2023/04/05 08:34:16;;;;;;;10.70;5.65;;;9.90;1.00;;;;;;6102312;23;20443;-89
2023/04/05 08:37:18;;;;;;;10.35;5.82;;;10.40;1.00;;;;;;6099959;23;20042;-92
2023/04/05 08:40:16;;;;;;;8.18;4.30;;;10.30;1.00;;;;;;6103570;23;20030;-89
2023/04/05 08:43:32;;;;;;;9.82;4.50;;;9.90;1.00;;;;;;6103180;23;20022;-89
2023/04/05 08:46:44;;;;;;;5.50;4.22;;;10.40;1.00;;;;;;6099382;23;20022;-89
2023/04/05 08:49:53;;;;;;;6.18;4.45;;;10.50;1.00;;;;;;6096996;23;20029;-91
2023/04/05 08:53:54;;;;;;;6.57;4.10;;;11.10;1.00;;;;;;6098294;23;20100;-90
2023/04/05 08:56:58;;;;;;;5.25;3.75;;;11.20;1.00;;;;;;5983055;23;20099;-88
2023/04/05 08:59:49;;;;;;;8.85;3.90;;;11.30;1.00;;;;;;5965857;23;20047;-88
2023/04/05 09:02:37;;;;;;;8.23;4.38;;;11.80;1.00;;;;;;6096787;23;20034;-89
2023/04/05 09:05:29;;;;;;;8.00;4.80;;;12.30;1.00;;;;;;6044205;23;20023;-91
2023/04/05 09:08:17;;;;;;;6.95;4.40;;;12.60;1.00;;;;;;6044471;23;20023;-90
2023/04/05 09:11:09;;;;;;;6.38;4.22;;;12.30;1.00;;;;;;6072667;23;20076;-91
2023/04/05 09:14:01;;;;;;;7.55;3.83;;;11.80;1.00;;;;;;6095220;23;20031;-90
2023/04/05 09:16:57;;;;;;;7.22;4.15;;;12.10;1.00;;;;;;6080147;23;20418;-91
2023/04/05 09:20:05;;;;;;;7.13;3.70;;;12.20;1.00;;;;;;6087757;23;20042;-88
2023/04/05 09:26:48;;;;;;;6.95;4.78;;;11.60;1.00;;;;;;6004246;23;20576;-87
2023/04/05 09:29:37;;;;;;;5.85;4.13;;;12.30;1.00;;;;;;6085450;23;20397;-84
2023/04/05 09:32:28;;;;;;;7.15;5.15;;;13.00;1.00;;;;;;6086637;23;20022;-91
2023/04/05 09:35:21;;;;;;;7.25;3.92;;;13.20;1.00;;;;;;6078798;23;20404;-89
2023/04/05 09:38:09;;;;;;;5.30;3.70;;;13.30;1.00;;;;;;6064729;23;20451;-90
2023/04/05 09:40:58;;;;;;;6.57;3.80;;;14.00;1.00;;;;;;6066480;23;20023;-93
2023/04/05 09:43:51;;;;;;;8.38;4.00;;;14.10;1.00;;;;;;6068457;23;20064;-91
2023/04/05 09:46:43;;;;;;;6.53;4.05;;;13.70;1.00;;;;;;6066378;23;20102;-92
2023/04/05 09:49:35;;;;;;;5.93;3.90;;;13.00;1.00;;;;;;6065944;23;20096;-90
2023/04/05 09:52:30;;;;;;;8.10;3.92;;;13.60;1.00;;;;;;6064729;23;20034;-90
2023/04/05 09:55:29;;;;;;;11.52;4.10;;;14.30;1.00;;;;;;6068028;23;20026;-90
2023/04/05 09:58:21;;;;;;;5.65;3.90;;;14.40;1.00;;;;;;6068486;23;20038;-89
2023/04/05 10:01:08;;;;;;;10.85;4.25;;;14.60;1.00;;;;;;6069053;23;20034;-88
2023/04/05 10:04:03;;;;;;;5.38;4.03;;;14.30;1.00;;;;;;6065584;23;20023;-88
2023/04/05 10:06:53;;;;;;;6.75;4.25;;;13.90;1.00;;;;;;6066498;23;20034;-88
2023/04/05 10:09:42;;;;;;;5.85;3.80;;;13.60;1.00;;;;;;6066927;23;20039;-89
2023/04/05 10:12:31;;;;;;;6.78;4.13;;;13.80;1.00;;;;;;6072581;23;20041;-92
2023/04/05 10:15:19;;;;;;;5.72;3.83;;;13.70;1.00;;;;;;6072799;23;20126;-89
2023/04/05 10:18:23;;;;;;;6.22;4.40;;;14.20;1.00;;;;;;6077628;23;20541;-84
2023/04/05 10:21:29;;;;;;;5.57;4.38;;;14.40;1.00;;;;;;6071462;23;20338;-87
2023/04/05 10:24:39;;;;;;;4.72;3.72;;;15.40;1.00;;;;;;6086390;23;20019;-87
2023/04/05 10:28:37;;;;;;;5.93;3.83;;;15.20;1.00;;;;;;6080448;23;20038;-90
2023/04/05 10:31:58;;;;;;;8.85;4.15;;;14.70;1.00;;;;;;6047622;23;20400;-89
2023/04/05 10:34:59;;;;;;;5.32;4.13;;;15.40;1.00;;;;;;6021139;23;20459;-88
2023/04/05 10:38:52;;;;;;;;;;;;;;;;;;;;;
2023/04/05 10:42:22;;;;;;;6.93;4.60;;;15.20;1.00;;;;;;6051778;23;20074;-89
2023/04/05 10:45:43;;;;;;;7.07;4.32;;;14.90;1.00;;;;;;6042022;23;20430;-90
2023/04/05 10:48:58;;;;;;;7.40;3.92;;;15.00;1.00;;;;;;6024816;23;20027;-89
2023/04/05 10:52:03;;;;;;;6.47;4.07;;;15.30;1.00;;;;;;6026679;23;20415;-87
2023/04/05 10:54:58;;;;;;;5.13;3.85;;;16.30;1.00;;;;;;6028118;22;20095;-88
2023/04/05 11:06:30;;;;;;;;;;;;;;;;;;;;;
2023/04/05 11:10:16;;;;;;;8.23;4.90;;;15.30;1.00;;;;;;6065757;23;20027;-92
2023/04/05 11:17:24;;;;;;;7.13;5.15;;;14.80;1.00;;;;;;6065333;23;20030;-90
2023/04/05 11:21:17;;;;;;;5.38;4.28;;;15.00;1.00;;;;;;6063373;23;20026;-91
2023/04/05 11:24:52;;;;;;;5.47;4.15;;;15.50;1.00;;;;;;6082532;23;20026;-90
2023/04/05 11:28:10;;;;;;;8.98;4.80;;;15.90;1.00;;;;;;6050734;23;20025;-92
2023/04/05 11:31:13;;;;;;;6.30;4.72;;;15.00;1.00;;;;;;6098887;23;20105;-88
2023/04/05 11:42:41;;;;;;;5.40;4.30;;;17.10;1.00;;;;;;6067652;23;20014;-92
2023/04/05 11:45:46;;;;;;;6.43;4.63;;;17.30;1.00;;;;;;6065942;23;20030;-91
2023/04/05 11:48:35;;;;;;;7.68;5.03;;;17.30;1.00;;;;;;6066122;23;20322;-91
2023/04/05 11:51:32;;;;;;;9.00;5.35;;;16.90;1.00;;;;;;6069354;23;20027;-87
2023/04/05 11:54:36;;;;;;;6.80;4.97;;;16.20;1.00;;;;;;6071701;23;20031;-88
2023/04/05 11:57:28;;;;;;;6.22;4.53;;;16.70;1.00;;;;;;6049148;23;20062;-89
2023/04/05 12:00:16;;;;;;;6.43;4.50;;;17.30;1.00;;;;;;6071731;23;20334;-91
2023/04/05 12:03:05;;;;;;;7.68;4.50;;;17.70;1.00;;;;;;6064523;23;20047;-89
2023/04/05 12:05:54;;;;;;;10.38;4.95;;;18.60;1.00;;;;;;6065490;23;20031;-91
2023/04/05 12:08:52;;;;;;;5.10;4.40;;;19.00;1.00;;;;;;6065993;23;20057;-88
2023/04/05 12:12:18;;;;;;;7.18;4.93;;;18.00;1.00;;;;;;6065782;23;20023;-90
2023/04/05 12:15:07;;;;;;;8.13;5.22;;;17.50;1.00;;;;;;6065724;23;20038;-89
2023/04/05 12:17:55;;;;;;;6.93;4.97;;;17.90;1.00;;;;;;6068951;23;20027;-87
2023/04/05 12:20:54;;;;;;;6.75;4.32;;;18.90;1.00;;;;;;6065187;23;20434;-90
2023/04/05 12:23:48;;;;;;;5.45;4.25;;;19.20;1.00;;;;;;6066130;23;20037;-88
2023/04/05 12:26:41;;;;;;;6.60;4.60;;;19.90;1.00;;;;;;6066165;23;20027;-88
2023/04/05 12:29:32;;;;;;;6.90;4.63;;;20.70;1.00;;;;;;6067638;23;20027;-87
2023/04/05 12:32:20;;;;;;;5.15;4.43;;;20.30;1.00;;;;;;6070152;23;20027;-87
2023/04/05 12:35:16;;;;;;;4.85;4.13;;;20.10;1.00;;;;;;6070639;23;20035;-89
2023/04/05 12:38:06;;;;;;;5.57;4.72;;;20.40;1.00;;;;;;6070993;23;20038;-87
2023/04/05 12:40:58;;;;;;;7.90;5.00;;;19.70;1.00;;;;;;6065324;23;20027;-91
2023/04/05 12:43:46;;;;;;;6.77;4.63;;;18.80;1.00;;;;;;6066775;23;20102;-90
2023/04/05 12:46:49;;;;;;;6.45;4.15;;;18.80;1.00;;;;;;6066320;23;20041;-90
2023/04/05 12:49:37;;;;;;;6.03;4.28;;;19.40;1.00;;;;;;6064814;23;20031;-89
2023/04/05 12:52:29;;;;;;;5.13;4.40;;;19.70;1.00;;;;;;6065184;23;20023;-86
2023/04/05 12:55:20;;;;;;;9.30;4.70;;;20.10;1.00;;;;;;6064023;23;20023;-90
2023/04/05 12:58:18;;;;;;;7.20;4.63;;;18.80;1.00;;;;;;6071851;23;20027;-89
2023/04/05 13:01:14;;;;;;;5.53;4.53;;;18.90;1.00;;;;;;6063234;23;20318;-89
2023/04/05 13:04:05;;;;;;;6.95;4.72;;;19.10;1.00;;;;;;6064296;23;20106;-89
2023/04/05 13:07:02;;;;;;;6.13;4.57;;;19.00;1.00;;;;;;6065284;23;20023;-90
2023/04/05 13:09:49;;;;;;;7.57;4.60;;;18.90;1.00;;;;;;6066772;23;20027;-88
2023/04/05 13:12:36;;;;;;;7.00;4.63;;;19.00;1.00;;;;;;6068379;23;20081;-91
2023/04/05 13:15:26;;;;;;;7.30;4.07;;;18.20;1.00;;;;;;6093904;23;20031;-89
2023/04/05 13:18:14;;;;;;;7.88;4.38;;;18.60;1.00;;;;;;6069630;23;20138;-87
2023/04/05 13:21:06;;;;;;;4.63;4.05;;;18.80;1.00;;;;;;6066117;23;20023;-89
2023/04/05 13:23:56;;;;;;;5.68;4.47;;;18.60;1.00;;;;;;6065879;23;20041;-88
2023/04/05 13:26:43;;;;;;;6.72;4.68;;;18.50;1.00;;;;;;6064061;23;20326;-87
2023/04/05 13:29:33;;;;;;;6.15;4.47;;;18.70;1.00;;;;;;6065641;23;20054;-90
2023/04/05 13:32:20;;;;;;;7.07;4.75;;;18.10;1.00;;;;;;6064928;23;20101;-91
2023/04/05 13:35:09;;;;;;;6.20;4.63;;;18.40;1.00;;;;;;6066965;23;20320;-89
2023/04/05 13:37:57;;;;;;;5.03;3.95;;;18.00;1.00;;;;;;6066790;23;20117;-89
2023/04/05 14:08:58;;;;;;;4.78;4.00;;;20.10;1.00;;;;;;6063762;23;20070;-87
2023/04/05 14:11:45;;;;;;;7.45;4.45;;;19.30;1.00;;;;;;6066485;23;20034;-90
2023/04/05 14:14:32;;;;;;;5.70;3.22;;;20.20;1.00;;;;;;6065642;23;20593;-87
2023/04/05 14:17:20;;;;;;;5.28;3.88;;;21.20;1.00;;;;;;6065159;23;20271;-85
2023/04/05 14:20:13;;;;;;;9.13;3.60;;;21.00;1.00;;;;;;6065421;23;20043;-91
2023/04/05 14:23:03;;;;;;;5.85;3.90;;;20.40;1.00;;;;;;6066218;23;20031;-89
2023/04/05 14:26:03;;;;;;;5.38;4.07;;;19.40;1.00;;;;;;6064210;23;20037;-89
2023/04/05 14:28:56;;;;;;;4.18;3.50;;;19.30;1.00;;;;;;6065451;23;20054;-89
2023/04/05 14:31:44;;;;;;;6.22;3.88;;;19.60;1.00;;;;;;6085015;23;20280;-90
2023/04/05 14:34:32;;;;;;;4.88;3.90;;;18.90;1.00;;;;;;6065787;23;20374;-89
2023/04/05 14:37:20;;;;;;;6.63;4.10;;;19.30;1.00;;;;;;6066914;23;20035;-88
2023/04/05 14:40:07;;;;;;;5.40;4.28;;;18.20;1.00;;;;;;6064891;23;20419;-89
2023/04/05 14:42:56;;;;;;;7.80;4.97;;;18.00;1.00;;;;;;6065145;23;20496;-89
2023/04/05 14:45:46;;;;;;;6.55;4.18;;;17.70;1.00;;;;;;6064660;23;20433;-87
2023/04/05 14:48:34;;;;;;;6.15;4.53;;;18.90;1.00;;;;;;6065770;23;20039;-88
2023/04/05 14:51:21;;;;;;;10.02;4.68;;;18.70;1.00;;;;;;6065347;23;20031;-89
2023/04/05 14:54:11;;;;;;;5.55;4.40;;;17.60;1.00;;;;;;6065232;23;20027;-88
2023/04/05 14:57:02;;;;;;;5.45;4.95;;;17.30;1.00;;;;;;6066160;23;20133;-88
2023/04/05 14:59:51;;;;;;;;;;;17.20;1.00;;;;;;6065485;23;20042;-87
2023/04/05 15:02:44;;;;;;;7.75;4.32;;;17.60;1.00;;;;;;6059870;23;19917;-87
2023/04/05 15:05:32;;;;;;;9.75;5.15;;;17.80;1.00;;;;;;6064214;23;20108;-86
2023/04/05 15:08:19;;;;;;;5.57;4.97;;;17.30;1.00;;;;;;6065107;23;20224;-90
2023/04/05 15:11:10;;;;;;;6.82;4.90;;;17.50;1.00;;;;;;6064160;23;20022;-89
2023/04/05 15:13:57;;;;;;;6.88;4.53;;;18.10;1.00;;;;;;6067400;23;20108;-89
2023/04/05 15:16:45;;;;;;;6.85;4.75;;;17.90;1.00;;;;;;6072021;23;20113;-88
2023/04/05 15:19:34;;;;;;;8.30;5.40;;;17.50;1.00;;;;;;6075269;23;20074;-89
2023/04/05 15:22:22;;;;;;;9.30;4.88;;;16.70;1.00;;;;;;6078408;23;20034;-87
2023/04/05 15:25:12;;;;;;;11.05;5.57;;;16.70;1.00;;;;;;6068394;23;20027;-88
2023/04/05 15:28:03;;;;;;;7.72;5.10;;;16.90;1.00;;;;;;6076296;23;20206;-89
2023/04/05 15:30:55;;;;;;;6.55;4.72;;;17.40;1.00;;;;;;6069969;23;20034;-89
2023/04/05 15:33:42;;;;;;;6.35;4.70;;;18.00;1.00;;;;;;6067074;23;20058;-89
2023/04/05 15:36:30;;;;;;;8.38;4.63;;;18.10;1.00;;;;;;6067013;23;20117;-91
2023/04/05 15:39:19;;;;;;;9.02;4.90;;;17.80;1.00;;;;;;6064412;23;20027;-89
2023/04/05 15:42:07;;;;;;;8.38;5.38;;;16.70;1.00;;;;;;6064805;23;20030;-90
2023/04/05 15:44:54;;;;;;;7.53;5.55;;;15.70;1.00;;;;;;6066255;23;20025;-88
2023/04/05 15:47:44;;;;;;;6.20;4.88;;;14.70;1.00;;;;;;6068970;23;20027;-89
2023/04/05 15:50:31;;;;;;;6.20;5.10;;;14.10;1.00;;;;;;6066934;23;20026;-88
2023/04/05 15:53:19;;;;;;;7.60;5.72;;;13.50;1.00;;;;;;6065381;23;20306;-89
2023/04/05 15:56:07;;;;;;;7.80;5.28;;;13.70;1.00;;;;;;6067416;23;20035;-87
2023/04/05 15:58:57;;;;;;;8.07;5.03;;;14.20;1.00;;;;;;6068859;23;20031;-90
2023/04/05 16:01:46;;;;;;;9.23;5.35;;;14.00;1.00;;;;;;6063181;23;20433;-88
2023/04/05 16:04:33;;;;;;;9.40;6.07;;;14.40;1.00;;;;;;6066543;23;20295;-89
2023/04/05 16:07:20;;;;;;;9.15;5.32;;;14.00;1.00;;;;;;6065661;23;20338;-92
2023/04/05 16:10:08;;;;;;;7.63;4.95;;;13.40;1.00;;;;;;6065227;23;20034;-89
2023/04/05 16:12:55;;;;;;;8.05;5.35;;;13.40;1.00;;;;;;6083252;23;20161;-90
2023/04/05 16:15:46;;;;;;;8.00;5.47;;;13.70;1.00;;;;;;6067750;23;20338;-89
2023/04/05 16:18:36;;;;;;;8.25;5.40;;;13.60;1.00;;;;;;6065216;23;20031;-93
2023/04/05 16:21:27;;;;;;;7.75;5.10;;;13.20;1.00;;;;;;6064914;23;20027;-90
2023/04/05 16:24:14;;;;;;;10.65;5.15;;;13.00;1.00;;;;;;6063734;23;20330;-91
2023/04/05 16:27:05;;;;;;;6.80;5.07;;;12.80;1.00;;;;;;6067157;23;20031;-89
2023/04/05 16:29:54;;;;;;;7.90;4.78;;;12.50;1.00;;;;;;6068605;23;20315;-90
2023/04/05 16:32:49;;;;;;;7.45;4.70;;;12.30;1.00;;;;;;6094784;23;20027;-92
2023/04/05 16:35:49;;;;;;;8.02;5.13;;;12.10;1.00;;;;;;6074649;23;20453;-89
2023/04/05 16:38:57;;;;;;;12.95;5.45;;;11.20;1.00;;;;;;6070978;23;20031;-90
2023/04/05 16:42:06;;;;;;;10.63;5.93;;;10.10;1.00;;;;;;6063863;23;20027;-88
2023/04/05 16:44:54;;;;;;;12.98;5.57;;;9.30;1.00;;;;;;6063925;23;20046;-91
2023/04/05 16:47:53;;;;;;;7.75;5.55;;;8.90;1.00;;;;;;6065230;23;20023;-91
2023/04/05 16:51:18;;;;;;;9.50;5.65;;;8.50;1.00;;;;;;6059727;23;20018;-89
2023/04/05 16:54:08;;;;;;;10.77;6.18;;;8.30;1.00;;;;;;6065332;23;20095;-87
2023/04/05 16:57:19;;;;;;;13.75;7.82;;;8.20;1.00;;;;;;6065088;23;20023;-90
2023/04/05 17:00:17;;;;;;;12.55;7.65;;;8.00;1.00;;;;;;6065130;23;20022;-91
2023/04/05 17:04:04;;;;;;;;;;;;;;;;;;;;;
2023/04/05 17:15:29;;;;;;;;;;;;;;;;;;;;;
2023/04/05 17:19:09;;;;;;;8.80;5.53;;;7.20;1.00;;;;;;6039387;23;20122;-92
2023/04/05 17:21:57;;;;;;;8.30;5.45;;;7.10;1.00;;;;;;6031198;23;20046;-86
2023/04/05 17:24:46;;;;;;;9.18;5.20;;;7.00;1.00;;;;;;6037886;23;20027;-89
2023/04/05 17:27:36;;;;;;;6.15;5.18;;;6.90;1.00;;;;;;5984593;23;20055;-89
2023/04/05 17:30:31;;;;;;;10.35;5.10;;;6.70;1.00;;;;;;6004836;23;20035;-87
2023/04/05 17:33:20;;;;;;;13.68;5.72;;;6.50;1.00;;;;;;5987540;23;20035;-88
2023/04/05 17:36:08;;;;;;;8.65;5.22;;;6.40;1.00;;;;;;6006589;23;20024;-89
2023/04/05 17:39:05;;;;;;;11.60;5.97;;;6.30;1.00;;;;;;6005766;23;20050;-88
2023/04/05 17:41:55;;;;;;;8.60;4.82;;;6.20;1.00;;;;;;6028565;23;20042;-88
2023/04/05 17:44:43;;;;;;;10.70;6.00;;;6.10;1.00;;;;;;6062588;23;20054;-89
2023/04/05 17:47:30;;;;;;;8.15;5.30;;;6.00;1.00;;;;;;6063168;23;20349;-88
2023/04/05 17:50:26;;;;;;;11.38;5.90;;;5.90;1.00;;;;;;6063622;23;20027;-89
2023/04/05 17:58:41;;;;;;;;;;;;;;;;;;;;;
2023/04/05 18:06:18;;;;;;;10.50;6.45;;;5.30;1.00;;;;;;6043781;23;20035;-90
2023/04/05 18:10:13;;;;;;;;;;;;;;;;;;;;;
2023/04/05 18:13:49;;;;;;;;;;;;;;;;;;;;;
2023/04/05 18:21:26;;;;;;;8.77;6.22;;;4.40;1.00;;;;;;6046358;23;20046;-89
2023/04/05 18:28:47;;;;;;;9.25;6.03;;;4.00;1.00;;;;;;6126211;23;20009;-91
2023/04/05 18:31:59;;;;;;;10.35;6.15;;;3.80;1.00;;;;;;6076788;23;20082;-90
2023/04/05 18:34:47;;;;;;;11.57;5.90;;;3.70;1.00;;;;;;6074708;23;20035;-91
2023/04/05 18:37:41;;;;;;;11.65;6.47;;;3.60;1.00;;;;;;6072308;23;20027;-92
2023/04/05 18:40:46;;;;;;;;;;;;;;;;;;;;;
2023/04/05 18:51:32;;;;;;;9.70;6.47;;;3.40;1.00;;;;;;5983139;24;20039;-91
2023/04/05 18:54:22;;;;;;;8.82;5.88;;;3.30;1.00;;;;;;5964921;23;20079;-93
2023/04/05 18:57:41;;;;;;;10.73;6.82;;;3.30;1.00;;;;;;5974092;23;20095;-91
2023/04/05 19:00:29;;;;;;;11.02;6.50;;;3.20;1.00;;;;;;6016735;23;20058;-92
2023/04/05 19:03:27;;;;;;;10.23;5.57;;;3.10;1.00;;;;;;6068356;23;20395;-91
2023/04/05 19:07:25;;;;;;;11.90;6.53;;;3.10;1.00;;;;;;6161581;23;20023;-93
2023/04/05 19:10:43;;;;;;;13.60;5.97;;;3.00;1.00;;;;;;6068262;23;20494;-90
2023/04/05 19:13:59;;;;;;;13.70;6.80;;;3.00;1.00;;;;;;6074452;23;20111;-91